sensor_id;sensor_type;location;lat;lon;timestamp;P1;durP1;ratioP1;P2;durP2;ratioP2
28988;SDS011;16089;59.952;10.818;2023-02-02T00:01:13;1.25;;;0.47;;
28988;SDS011;16089;59.952;10.818;2023-02-02T00:03:39;1.23;;;0.43;;
28988;SDS011;16089;59.952;10.818;2023-02-02T00:06:06;1.50;;;0.32;;
28988;SDS011;16089;59.952;10.818;2023-02-02T00:08:32;1.67;;;0.50;;
28988;SDS011;16089;59.952;10.818;2023-02-02T00:11:00;1.52;;;0.60;;
28988;SDS011;16089;59.952;10.818;2023-02-02T00:13:26;1.90;;;0.40;;
28988;SDS011;16089;59.952;10.818;2023-02-02T00:15:54;0.65;;;0.30;;
28988;SDS011;16089;59.952;10.818;2023-02-02T00:18:20;1.25;;;0.30;;
28988;SDS011;16089;59.952;10.818;2023-02-02T00:20:46;0.90;;;0.30;;
28988;SDS011;16089;59.952;10.818;2023-02-02T00:23:14;1.20;;;0.30;;
28988;SDS011;16089;59.952;10.818;2023-02-02T00:25:41;0.75;;;0.30;;
28988;SDS011;16089;59.952;10.818;2023-02-02T00:28:07;0.43;;;0.20;;
28988;SDS011;16089;59.952;10.818;2023-02-02T00:30:33;0.95;;;0.30;;
28988;SDS011;16089;59.952;10.818;2023-02-02T00:33:01;2.55;;;0.40;;
28988;SDS011;16089;59.952;10.818;2023-02-02T00:35:27;0.30;;;0.20;;
28988;SDS011;16089;59.952;10.818;2023-02-02T00:37:54;0.35;;;0.20;;
28988;SDS011;16089;59.952;10.818;2023-02-02T00:40:20;0.20;;;0.20;;
28988;SDS011;16089;59.952;10.818;2023-02-02T00:42:46;1.65;;;0.22;;
28988;SDS011;16089;59.952;10.818;2023-02-02T00:45:14;1.35;;;0.25;;
28988;SDS011;16089;59.952;10.818;2023-02-02T00:47:40;1.08;;;0.30;;
28988;SDS011;16089;59.952;10.818;2023-02-02T00:50:08;1.48;;;0.30;;
28988;SDS011;16089;59.952;10.818;2023-02-02T00:52:34;0.43;;;0.20;;
28988;SDS011;16089;59.952;10.818;2023-02-02T00:55:01;0.55;;;0.20;;
28988;SDS011;16089;59.952;10.818;2023-02-02T00:57:27;0.20;;;0.20;;
28988;SDS011;16089;59.952;10.818;2023-02-02T00:59:53;0.75;;;0.30;;
28988;SDS011;16089;59.952;10.818;2023-02-02T01:02:20;1.00;;;0.30;;
28988;SDS011;16089;59.952;10.818;2023-02-02T01:04:46;0.30;;;0.20;;
28988;SDS011;16089;59.952;10.818;2023-02-02T01:07:14;0.75;;;0.30;;
28988;SDS011;16089;59.952;10.818;2023-02-02T01:09:40;0.32;;;0.20;;
28988;SDS011;16089;59.952;10.818;2023-02-02T01:12:06;1.52;;;0.40;;
28988;SDS011;16089;59.952;10.818;2023-02-02T01:14:33;1.75;;;0.30;;
28988;SDS011;16089;59.952;10.818;2023-02-02T01:16:59;0.82;;;0.30;;
28988;SDS011;16089;59.952;10.818;2023-02-02T01:19:25;1.92;;;0.30;;
28988;SDS011;16089;59.952;10.818;2023-02-02T01:21:52;0.52;;;0.20;;
28988;SDS011;16089;59.952;10.818;2023-02-02T01:24:19;0.70;;;0.30;;
28988;SDS011;16089;59.952;10.818;2023-02-02T01:26:46;0.90;;;0.30;;
28988;SDS011;16089;59.952;10.818;2023-02-02T01:29:12;1.65;;;0.40;;
28988;SDS011;16089;59.952;10.818;2023-02-02T01:31:39;0.32;;;0.20;;
28988;SDS011;16089;59.952;10.818;2023-02-02T01:34:06;0.50;;;0.30;;
28988;SDS011;16089;59.952;10.818;2023-02-02T01:36:32;1.00;;;0.30;;
28988;SDS011;16089;59.952;10.818;2023-02-02T01:38:59;1.05;;;0.30;;
28988;SDS011;16089;59.952;10.818;2023-02-02T01:41:26;3.85;;;0.30;;
28988;SDS011;16089;59.952;10.818;2023-02-02T01:43:55;1.08;;;0.30;;
28988;SDS011;16089;59.952;10.818;2023-02-02T01:46:22;0.60;;;0.30;;
28988;SDS011;16089;59.952;10.818;2023-02-02T01:48:50;0.73;;;0.40;;
28988;SDS011;16089;59.952;10.818;2023-02-02T01:51:18;0.57;;;0.20;;
28988;SDS011;16089;59.952;10.818;2023-02-02T01:53:46;1.77;;;0.30;;
28988;SDS011;16089;59.952;10.818;2023-02-02T01:56:13;1.38;;;0.40;;
28988;SDS011;16089;59.952;10.818;2023-02-02T01:58:42;0.65;;;0.25;;
28988;SDS011;16089;59.952;10.818;2023-02-02T02:01:08;1.45;;;0.28;;
28988;SDS011;16089;59.952;10.818;2023-02-02T02:03:35;0.25;;;0.20;;
28988;SDS011;16089;59.952;10.818;2023-02-02T02:06:02;1.60;;;0.30;;
28988;SDS011;16089;59.952;10.818;2023-02-02T02:08:30;0.20;;;0.20;;
28988;SDS011;16089;59.952;10.818;2023-02-02T02:10:56;0.75;;;0.30;;
28988;SDS011;16089;59.952;10.818;2023-02-02T02:13:24;0.60;;;0.40;;
28988;SDS011;16089;59.952;10.818;2023-02-02T02:16:14;0.82;;;0.35;;
28988;SDS011;16089;59.952;10.818;2023-02-02T02:18:44;0.88;;;0.20;;
28988;SDS011;16089;59.952;10.818;2023-02-02T02:21:22;0.63;;;0.20;;
28988;SDS011;16089;59.952;10.818;2023-02-02T02:24:16;0.47;;;0.28;;
28988;SDS011;16089;59.952;10.818;2023-02-02T02:27:26;0.30;;;0.20;;
28988;SDS011;16089;59.952;10.818;2023-02-02T02:32:41;1.67;;;0.30;;
28988;SDS011;16089;59.952;10.818;2023-02-02T02:35:11;1.98;;;0.10;;
28988;SDS011;16089;59.952;10.818;2023-02-02T02:37:40;0.63;;;0.20;;
28988;SDS011;16089;59.952;10.818;2023-02-02T02:40:12;0.63;;;0.20;;
28988;SDS011;16089;59.952;10.818;2023-02-02T02:42:41;1.70;;;0.30;;
28988;SDS011;16089;59.952;10.818;2023-02-02T02:45:09;0.65;;;0.17;;
28988;SDS011;16089;59.952;10.818;2023-02-02T02:47:36;1.52;;;0.30;;
28988;SDS011;16089;59.952;10.818;2023-02-02T02:50:05;0.70;;;0.30;;
28988;SDS011;16089;59.952;10.818;2023-02-02T02:52:31;0.45;;;0.28;;
28988;SDS011;16089;59.952;10.818;2023-02-02T02:54:58;0.22;;;0.20;;
28988;SDS011;16089;59.952;10.818;2023-02-02T02:57:29;1.48;;;0.30;;
28988;SDS011;16089;59.952;10.818;2023-02-02T02:59:59;0.52;;;0.20;;
28988;SDS011;16089;59.952;10.818;2023-02-02T03:02:31;0.20;;;0.20;;
28988;SDS011;16089;59.952;10.818;2023-02-02T03:05:01;0.47;;;0.13;;
28988;SDS011;16089;59.952;10.818;2023-02-02T03:07:34;0.47;;;0.28;;
28988;SDS011;16089;59.952;10.818;2023-02-02T03:10:00;1.95;;;0.30;;
28988;SDS011;16089;59.952;10.818;2023-02-02T03:12:27;1.30;;;0.40;;
28988;SDS011;16089;59.952;10.818;2023-02-02T03:14:53;1.02;;;0.30;;
28988;SDS011;16089;59.952;10.818;2023-02-02T03:17:20;0.47;;;0.20;;
28988;SDS011;16089;59.952;10.818;2023-02-02T03:19:47;0.75;;;0.30;;
28988;SDS011;16089;59.952;10.818;2023-02-02T03:22:13;0.63;;;0.20;;
28988;SDS011;16089;59.952;10.818;2023-02-02T03:24:41;1.77;;;0.20;;
28988;SDS011;16089;59.952;10.818;2023-02-02T03:27:07;0.60;;;0.30;;
28988;SDS011;16089;59.952;10.818;2023-02-02T03:29:33;0.65;;;0.20;;
28988;SDS011;16089;59.952;10.818;2023-02-02T03:32:00;0.40;;;0.20;;
28988;SDS011;16089;59.952;10.818;2023-02-02T03:34:26;0.38;;;0.20;;
28988;SDS011;16089;59.952;10.818;2023-02-02T03:36:52;1.00;;;0.30;;
28988;SDS011;16089;59.952;10.818;2023-02-02T03:39:19;0.40;;;0.22;;
28988;SDS011;16089;59.952;10.818;2023-02-02T03:41:46;0.20;;;0.20;;
28988;SDS011;16089;59.952;10.818;2023-02-02T03:44:13;0.57;;;0.30;;
28988;SDS011;16089;59.952;10.818;2023-02-02T03:46:39;0.63;;;0.20;;
28988;SDS011;16089;59.952;10.818;2023-02-02T03:49:06;0.20;;;0.20;;
28988;SDS011;16089;59.952;10.818;2023-02-02T03:51:32;0.43;;;0.30;;
28988;SDS011;16089;59.952;10.818;2023-02-02T03:53:58;1.17;;;0.30;;
28988;SDS011;16089;59.952;10.818;2023-02-02T03:56:25;0.55;;;0.40;;
28988;SDS011;16089;59.952;10.818;2023-02-02T03:58:52;0.35;;;0.20;;
28988;SDS011;16089;59.952;10.818;2023-02-02T04:01:24;2.35;;;0.40;;
28988;SDS011;16089;59.952;10.818;2023-02-02T04:03:51;1.17;;;0.20;;
28988;SDS011;16089;59.952;10.818;2023-02-02T04:06:17;0.85;;;0.30;;
28988;SDS011;16089;59.952;10.818;2023-02-02T04:08:44;0.80;;;0.25;;
28988;SDS011;16089;59.952;10.818;2023-02-02T04:11:11;0.28;;;0.20;;
28988;SDS011;16089;59.952;10.818;2023-02-02T04:13:37;0.52;;;0.20;;
28988;SDS011;16089;59.952;10.818;2023-02-02T04:16:06;0.52;;;0.30;;
28988;SDS011;16089;59.952;10.818;2023-02-02T04:18:32;0.93;;;0.30;;
28988;SDS011;16089;59.952;10.818;2023-02-02T04:20:59;0.15;;;0.15;;
28988;SDS011;16089;59.952;10.818;2023-02-02T04:23:26;0.30;;;0.20;;
28988;SDS011;16089;59.952;10.818;2023-02-02T04:25:53;0.55;;;0.22;;
28988;SDS011;16089;59.952;10.818;2023-02-02T04:28:19;0.80;;;0.28;;
28988;SDS011;16089;59.952;10.818;2023-02-02T04:30:47;0.68;;;0.30;;
28988;SDS011;16089;59.952;10.818;2023-02-02T04:33:15;0.60;;;0.30;;
28988;SDS011;16089;59.952;10.818;2023-02-02T04:35:42;1.70;;;0.30;;
28988;SDS011;16089;59.952;10.818;2023-02-02T04:38:08;2.17;;;0.30;;
28988;SDS011;16089;59.952;10.818;2023-02-02T04:40:36;0.85;;;0.30;;
28988;SDS011;16089;59.952;10.818;2023-02-02T04:43:03;0.43;;;0.25;;
28988;SDS011;16089;59.952;10.818;2023-02-02T04:45:29;0.30;;;0.20;;
28988;SDS011;16089;59.952;10.818;2023-02-02T04:47:55;1.23;;;0.30;;
28988;SDS011;16089;59.952;10.818;2023-02-02T04:50:23;1.45;;;0.40;;
28988;SDS011;16089;59.952;10.818;2023-02-02T04:52:49;0.30;;;0.20;;
28988;SDS011;16089;59.952;10.818;2023-02-02T04:55:16;0.80;;;0.28;;
28988;SDS011;16089;59.952;10.818;2023-02-02T04:57:42;0.98;;;0.28;;
28988;SDS011;16089;59.952;10.818;2023-02-02T05:00:09;0.60;;;0.20;;
28988;SDS011;16089;59.952;10.818;2023-02-02T05:02:36;0.73;;;0.20;;
28988;SDS011;16089;59.952;10.818;2023-02-02T05:05:03;1.15;;;0.30;;
28988;SDS011;16089;59.952;10.818;2023-02-02T05:07:31;1.13;;;0.28;;
28988;SDS011;16089;59.952;10.818;2023-02-02T05:09:58;1.00;;;0.40;;
28988;SDS011;16089;59.952;10.818;2023-02-02T05:12:24;0.95;;;0.30;;
28988;SDS011;16089;59.952;10.818;2023-02-02T05:14:50;1.98;;;0.40;;
28988;SDS011;16089;59.952;10.818;2023-02-02T05:17:17;1.52;;;0.50;;
28988;SDS011;16089;59.952;10.818;2023-02-02T05:19:43;0.57;;;0.20;;
28988;SDS011;16089;59.952;10.818;2023-02-02T05:22:09;0.40;;;0.20;;
28988;SDS011;16089;59.952;10.818;2023-02-02T05:24:37;0.28;;;0.20;;
28988;SDS011;16089;59.952;10.818;2023-02-02T05:27:03;0.25;;;0.20;;
28988;SDS011;16089;59.952;10.818;2023-02-02T05:29:30;0.30;;;0.10;;
28988;SDS011;16089;59.952;10.818;2023-02-02T05:31:57;1.25;;;0.30;;
28988;SDS011;16089;59.952;10.818;2023-02-02T05:34:23;0.20;;;0.20;;
28988;SDS011;16089;59.952;10.818;2023-02-02T05:36:50;0.75;;;0.25;;
28988;SDS011;16089;59.952;10.818;2023-02-02T05:39:16;0.35;;;0.30;;
28988;SDS011;16089;59.952;10.818;2023-02-02T05:41:44;0.68;;;0.30;;
28988;SDS011;16089;59.952;10.818;2023-02-02T05:44:11;2.15;;;0.30;;
28988;SDS011;16089;59.952;10.818;2023-02-02T05:46:38;1.15;;;0.20;;
28988;SDS011;16089;59.952;10.818;2023-02-02T05:49:05;0.65;;;0.22;;
28988;SDS011;16089;59.952;10.818;2023-02-02T05:51:32;0.55;;;0.30;;
28988;SDS011;16089;59.952;10.818;2023-02-02T05:53:59;0.60;;;0.30;;
28988;SDS011;16089;59.952;10.818;2023-02-02T05:56:25;0.50;;;0.30;;
28988;SDS011;16089;59.952;10.818;2023-02-02T05:58:53;0.30;;;0.20;;
28988;SDS011;16089;59.952;10.818;2023-02-02T06:01:19;0.47;;;0.20;;
28988;SDS011;16089;59.952;10.818;2023-02-02T06:03:46;0.20;;;0.20;;
28988;SDS011;16089;59.952;10.818;2023-02-02T06:06:13;0.52;;;0.22;;
28988;SDS011;16089;59.952;10.818;2023-02-02T06:08:39;1.35;;;0.30;;
28988;SDS011;16089;59.952;10.818;2023-02-02T06:11:09;0.30;;;0.20;;
28988;SDS011;16089;59.952;10.818;2023-02-02T06:13:35;1.67;;;0.28;;
28988;SDS011;16089;59.952;10.818;2023-02-02T06:16:03;0.85;;;0.40;;
28988;SDS011;16089;59.952;10.818;2023-02-02T06:18:29;3.47;;;0.93;;
28988;SDS011;16089;59.952;10.818;2023-02-02T06:20:56;0.98;;;0.50;;
28988;SDS011;16089;59.952;10.818;2023-02-02T06:23:22;0.93;;;0.50;;
28988;SDS011;16089;59.952;10.818;2023-02-02T06:25:49;1.67;;;0.30;;
28988;SDS011;16089;59.952;10.818;2023-02-02T06:28:15;1.88;;;0.30;;
28988;SDS011;16089;59.952;10.818;2023-02-02T06:30:41;0.60;;;0.30;;
28988;SDS011;16089;59.952;10.818;2023-02-02T06:33:09;0.25;;;0.20;;
28988;SDS011;16089;59.952;10.818;2023-02-02T06:35:36;0.65;;;0.30;;
28988;SDS011;16089;59.952;10.818;2023-02-02T06:38:02;0.30;;;0.20;;
28988;SDS011;16089;59.952;10.818;2023-02-02T06:40:29;1.88;;;0.40;;
28988;SDS011;16089;59.952;10.818;2023-02-02T06:42:55;1.95;;;0.30;;
28988;SDS011;16089;59.952;10.818;2023-02-02T06:45:22;10.18;;;0.60;;
28988;SDS011;16089;59.952;10.818;2023-02-02T06:47:48;0.32;;;0.20;;
28988;SDS011;16089;59.952;10.818;2023-02-02T06:50:16;1.17;;;0.40;;
28988;SDS011;16089;59.952;10.818;2023-02-02T06:52:45;1.95;;;0.68;;
28988;SDS011;16089;59.952;10.818;2023-02-02T06:55:12;0.80;;;0.40;;
28988;SDS011;16089;59.952;10.818;2023-02-02T06:57:38;2.60;;;0.45;;
28988;SDS011;16089;59.952;10.818;2023-02-02T07:00:05;1.90;;;0.43;;
28988;SDS011;16089;59.952;10.818;2023-02-02T07:02:32;1.58;;;0.47;;
28988;SDS011;16089;59.952;10.818;2023-02-02T07:04:59;0.73;;;0.30;;
28988;SDS011;16089;59.952;10.818;2023-02-02T07:07:27;0.98;;;0.30;;
28988;SDS011;16089;59.952;10.818;2023-02-02T07:09:56;0.35;;;0.22;;
28988;SDS011;16089;59.952;10.818;2023-02-02T07:12:22;0.30;;;0.20;;
28988;SDS011;16089;59.952;10.818;2023-02-02T07:14:50;2.80;;;0.30;;
28988;SDS011;16089;59.952;10.818;2023-02-02T07:17:17;0.77;;;0.40;;
28988;SDS011;16089;59.952;10.818;2023-02-02T07:19:44;1.70;;;0.40;;
28988;SDS011;16089;59.952;10.818;2023-02-02T07:22:10;1.38;;;0.40;;
28988;SDS011;16089;59.952;10.818;2023-02-02T07:24:38;0.43;;;0.20;;
28988;SDS011;16089;59.952;10.818;2023-02-02T07:27:04;0.25;;;0.20;;
28988;SDS011;16089;59.952;10.818;2023-02-02T07:29:31;0.32;;;0.20;;
28988;SDS011;16089;59.952;10.818;2023-02-02T07:31:57;0.68;;;0.30;;
28988;SDS011;16089;59.952;10.818;2023-02-02T07:34:23;0.38;;;0.30;;
28988;SDS011;16089;59.952;10.818;2023-02-02T07:36:50;0.20;;;0.20;;
28988;SDS011;16089;59.952;10.818;2023-02-02T07:39:16;0.98;;;0.30;;
28988;SDS011;16089;59.952;10.818;2023-02-02T07:41:44;2.25;;;0.22;;
28988;SDS011;16089;59.952;10.818;2023-02-02T07:44:11;0.60;;;0.20;;
28988;SDS011;16089;59.952;10.818;2023-02-02T07:46:39;0.50;;;0.28;;
28988;SDS011;16089;59.952;10.818;2023-02-02T07:49:05;0.60;;;0.20;;
28988;SDS011;16089;59.952;10.818;2023-02-02T07:51:32;2.30;;;0.30;;
28988;SDS011;16089;59.952;10.818;2023-02-02T07:53:58;1.70;;;0.30;;
28988;SDS011;16089;59.952;10.818;2023-02-02T07:56:25;0.22;;;0.20;;
28988;SDS011;16089;59.952;10.818;2023-02-02T07:58:53;0.98;;;0.20;;
28988;SDS011;16089;59.952;10.818;2023-02-02T08:01:19;0.60;;;0.30;;
28988;SDS011;16089;59.952;10.818;2023-02-02T08:03:47;1.23;;;0.40;;
28988;SDS011;16089;59.952;10.818;2023-02-02T08:06:14;3.80;;;0.82;;
28988;SDS011;16089;59.952;10.818;2023-02-02T08:08:40;2.00;;;0.90;;
28988;SDS011;16089;59.952;10.818;2023-02-02T08:11:07;0.93;;;0.30;;
28988;SDS011;16089;59.952;10.818;2023-02-02T08:13:34;0.60;;;0.20;;
28988;SDS011;16089;59.952;10.818;2023-02-02T08:16:01;0.68;;;0.30;;
28988;SDS011;16089;59.952;10.818;2023-02-02T08:18:28;0.90;;;0.20;;
28988;SDS011;16089;59.952;10.818;2023-02-02T08:20:56;2.85;;;0.30;;
28988;SDS011;16089;59.952;10.818;2023-02-02T08:23:23;1.20;;;0.30;;
28988;SDS011;16089;59.952;10.818;2023-02-02T08:25:49;0.25;;;0.20;;
28988;SDS011;16089;59.952;10.818;2023-02-02T08:28:16;4.00;;;0.90;;
28988;SDS011;16089;59.952;10.818;2023-02-02T08:30:42;3.90;;;0.80;;
28988;SDS011;16089;59.952;10.818;2023-02-02T08:33:10;0.85;;;0.30;;
28988;SDS011;16089;59.952;10.818;2023-02-02T08:35:39;1.23;;;0.30;;
28988;SDS011;16089;59.952;10.818;2023-02-02T08:38:05;0.55;;;0.20;;
28988;SDS011;16089;59.952;10.818;2023-02-02T08:40:32;1.25;;;0.50;;
28988;SDS011;16089;59.952;10.818;2023-02-02T08:42:58;0.88;;;0.50;;
28988;SDS011;16089;59.952;10.818;2023-02-02T08:45:24;0.80;;;0.30;;
28988;SDS011;16089;59.952;10.818;2023-02-02T08:47:51;0.32;;;0.28;;
28988;SDS011;16089;59.952;10.818;2023-02-02T08:50:20;1.02;;;0.38;;
28988;SDS011;16089;59.952;10.818;2023-02-02T08:52:46;0.70;;;0.35;;
28988;SDS011;16089;59.952;10.818;2023-02-02T08:55:12;1.27;;;0.50;;
28988;SDS011;16089;59.952;10.818;2023-02-02T08:57:39;1.52;;;0.47;;
28988;SDS011;16089;59.952;10.818;2023-02-02T09:00:06;1.27;;;0.40;;
28988;SDS011;16089;59.952;10.818;2023-02-02T09:02:33;2.90;;;0.88;;
28988;SDS011;16089;59.952;10.818;2023-02-02T09:04:59;1.67;;;0.60;;
28988;SDS011;16089;59.952;10.818;2023-02-02T09:07:27;2.33;;;0.70;;
28988;SDS011;16089;59.952;10.818;2023-02-02T09:09:53;1.90;;;0.70;;
28988;SDS011;16089;59.952;10.818;2023-02-02T09:12:22;1.75;;;0.52;;
28988;SDS011;16089;59.952;10.818;2023-02-02T09:14:48;3.08;;;0.65;;
28988;SDS011;16089;59.952;10.818;2023-02-02T09:17:14;1.90;;;0.80;;
28988;SDS011;16089;59.952;10.818;2023-02-02T09:19:41;3.88;;;0.80;;
28988;SDS011;16089;59.952;10.818;2023-02-02T09:22:07;2.05;;;0.65;;
28988;SDS011;16089;59.952;10.818;2023-02-02T09:24:35;1.95;;;0.65;;
28988;SDS011;16089;59.952;10.818;2023-02-02T09:27:01;1.92;;;0.70;;
28988;SDS011;16089;59.952;10.818;2023-02-02T09:29:28;3.47;;;1.23;;
28988;SDS011;16089;59.952;10.818;2023-02-02T09:31:54;2.22;;;0.68;;
28988;SDS011;16089;59.952;10.818;2023-02-02T09:34:20;1.88;;;0.85;;
28988;SDS011;16089;59.952;10.818;2023-02-02T09:36:47;2.97;;;0.55;;
28988;SDS011;16089;59.952;10.818;2023-02-02T09:39:14;3.13;;;0.77;;
28988;SDS011;16089;59.952;10.818;2023-02-02T09:41:50;1.73;;;0.70;;
28988;SDS011;16089;59.952;10.818;2023-02-02T09:44:23;2.22;;;0.90;;
28988;SDS011;16089;59.952;10.818;2023-02-02T09:46:55;2.05;;;0.70;;
28988;SDS011;16089;59.952;10.818;2023-02-02T09:49:22;5.90;;;0.70;;
28988;SDS011;16089;59.952;10.818;2023-02-02T09:51:52;2.15;;;0.70;;
28988;SDS011;16089;59.952;10.818;2023-02-02T09:54:21;2.08;;;0.77;;
28988;SDS011;16089;59.952;10.818;2023-02-02T09:56:51;4.15;;;0.90;;
28988;SDS011;16089;59.952;10.818;2023-02-02T09:59:20;2.92;;;0.60;;
28988;SDS011;16089;59.952;10.818;2023-02-02T10:01:48;2.95;;;0.80;;
28988;SDS011;16089;59.952;10.818;2023-02-02T10:04:18;2.35;;;0.93;;
28988;SDS011;16089;59.952;10.818;2023-02-02T10:06:46;1.73;;;0.68;;
28988;SDS011;16089;59.952;10.818;2023-02-02T10:09:23;2.15;;;0.80;;
28988;SDS011;16089;59.952;10.818;2023-02-02T10:11:54;5.88;;;1.20;;
28988;SDS011;16089;59.952;10.818;2023-02-02T10:14:22;2.70;;;0.85;;
28988;SDS011;16089;59.952;10.818;2023-02-02T10:16:51;7.20;;;1.50;;
28988;SDS011;16089;59.952;10.818;2023-02-02T10:19:18;5.07;;;1.55;;
28988;SDS011;16089;59.952;10.818;2023-02-02T10:21:50;6.95;;;1.77;;
28988;SDS011;16089;59.952;10.818;2023-02-02T10:24:19;3.40;;;1.30;;
28988;SDS011;16089;59.952;10.818;2023-02-02T10:26:46;6.40;;;1.67;;
28988;SDS011;16089;59.952;10.818;2023-02-02T10:29:18;4.28;;;1.63;;
28988;SDS011;16089;59.952;10.818;2023-02-02T10:31:54;5.53;;;1.85;;
28988;SDS011;16089;59.952;10.818;2023-02-02T10:34:24;7.80;;;1.70;;
28988;SDS011;16089;59.952;10.818;2023-02-02T10:36:57;6.15;;;2.00;;
28988;SDS011;16089;59.952;10.818;2023-02-02T10:39:27;6.22;;;2.20;;
28988;SDS011;16089;59.952;10.818;2023-02-02T10:41:58;7.28;;;2.53;;
28988;SDS011;16089;59.952;10.818;2023-02-02T10:44:31;3.63;;;1.35;;
28988;SDS011;16089;59.952;10.818;2023-02-02T10:46:59;5.38;;;1.75;;
28988;SDS011;16089;59.952;10.818;2023-02-02T10:49:27;4.10;;;1.52;;
28988;SDS011;16089;59.952;10.818;2023-02-02T10:51:56;9.32;;;3.20;;
28988;SDS011;16089;59.952;10.818;2023-02-02T10:57:04;5.68;;;2.03;;
28988;SDS011;16089;59.952;10.818;2023-02-02T10:59:34;7.53;;;1.95;;
28988;SDS011;16089;59.952;10.818;2023-02-02T11:02:06;6.82;;;2.67;;
28988;SDS011;16089;59.952;10.818;2023-02-02T11:04:37;7.68;;;2.00;;
28988;SDS011;16089;59.952;10.818;2023-02-02T11:07:21;6.63;;;2.10;;
28988;SDS011;16089;59.952;10.818;2023-02-02T11:09:47;6.63;;;2.20;;
28988;SDS011;16089;59.952;10.818;2023-02-02T11:12:15;8.25;;;2.78;;
28988;SDS011;16089;59.952;10.818;2023-02-02T11:14:46;7.28;;;2.35;;
28988;SDS011;16089;59.952;10.818;2023-02-02T11:17:18;9.65;;;3.05;;
28988;SDS011;16089;59.952;10.818;2023-02-02T11:19:45;8.00;;;3.45;;
28988;SDS011;16089;59.952;10.818;2023-02-02T11:22:22;14.77;;;3.88;;
28988;SDS011;16089;59.952;10.818;2023-02-02T11:24:49;27.55;;;6.32;;
28988;SDS011;16089;59.952;10.818;2023-02-02T11:27:17;23.88;;;6.57;;
28988;SDS011;16089;59.952;10.818;2023-02-02T11:29:46;24.02;;;6.03;;
28988;SDS011;16089;59.952;10.818;2023-02-02T11:32:17;16.98;;;6.05;;
28988;SDS011;16089;59.952;10.818;2023-02-02T11:34:43;25.15;;;6.10;;
28988;SDS011;16089;59.952;10.818;2023-02-02T11:37:11;21.67;;;6.10;;
28988;SDS011;16089;59.952;10.818;2023-02-02T11:39:37;16.08;;;5.32;;
28988;SDS011;16089;59.952;10.818;2023-02-02T11:42:05;16.60;;;5.72;;
28988;SDS011;16089;59.952;10.818;2023-02-02T11:44:32;12.90;;;5.10;;
28988;SDS011;16089;59.952;10.818;2023-02-02T11:47:01;12.10;;;4.30;;
28988;SDS011;16089;59.952;10.818;2023-02-02T11:49:28;11.93;;;4.05;;
28988;SDS011;16089;59.952;10.818;2023-02-02T11:51:57;12.68;;;4.20;;
28988;SDS011;16089;59.952;10.818;2023-02-02T11:54:25;12.30;;;3.97;;
28988;SDS011;16089;59.952;10.818;2023-02-02T11:56:53;14.65;;;4.13;;
28988;SDS011;16089;59.952;10.818;2023-02-02T11:59:28;12.13;;;3.85;;
28988;SDS011;16089;59.952;10.818;2023-02-02T12:04:50;17.25;;;4.60;;
28988;SDS011;16089;59.952;10.818;2023-02-02T12:07:17;11.80;;;4.35;;
28988;SDS011;16089;59.952;10.818;2023-02-02T12:09:44;24.25;;;6.20;;
28988;SDS011;16089;59.952;10.818;2023-02-02T12:12:14;27.65;;;7.80;;
28988;SDS011;16089;59.952;10.818;2023-02-02T12:14:45;18.92;;;5.70;;
28988;SDS011;16089;59.952;10.818;2023-02-02T12:17:17;14.20;;;5.35;;
28988;SDS011;16089;59.952;10.818;2023-02-02T12:19:51;20.08;;;6.05;;
28988;SDS011;16089;59.952;10.818;2023-02-02T12:22:26;22.23;;;6.43;;
28988;SDS011;16089;59.952;10.818;2023-02-02T12:24:55;24.60;;;6.15;;
28988;SDS011;16089;59.952;10.818;2023-02-02T12:27:24;32.10;;;6.57;;
28988;SDS011;16089;59.952;10.818;2023-02-02T12:30:08;25.45;;;6.40;;
28988;SDS011;16089;59.952;10.818;2023-02-02T12:32:42;22.55;;;6.35;;
28988;SDS011;16089;59.952;10.818;2023-02-02T12:35:28;20.77;;;6.15;;
28988;SDS011;16089;59.952;10.818;2023-02-02T12:37:59;17.98;;;5.57;;
28988;SDS011;16089;59.952;10.818;2023-02-02T12:40:32;19.35;;;5.43;;
28988;SDS011;16089;59.952;10.818;2023-02-02T12:43:06;23.45;;;5.57;;
28988;SDS011;16089;59.952;10.818;2023-02-02T12:45:44;22.17;;;6.65;;
28988;SDS011;16089;59.952;10.818;2023-02-02T12:48:16;19.17;;;5.75;;
28988;SDS011;16089;59.952;10.818;2023-02-02T12:50:48;22.67;;;5.88;;
28988;SDS011;16089;59.952;10.818;2023-02-02T12:53:24;21.75;;;6.07;;
28988;SDS011;16089;59.952;10.818;2023-02-02T12:55:56;21.13;;;5.93;;
28988;SDS011;16089;59.952;10.818;2023-02-02T12:58:26;19.38;;;5.63;;
28988;SDS011;16089;59.952;10.818;2023-02-02T13:01:02;17.02;;;5.43;;
28988;SDS011;16089;59.952;10.818;2023-02-02T13:03:37;18.17;;;6.80;;
28988;SDS011;16089;59.952;10.818;2023-02-02T13:06:11;23.10;;;6.75;;
28988;SDS011;16089;59.952;10.818;2023-02-02T13:08:44;25.95;;;6.35;;
28988;SDS011;16089;59.952;10.818;2023-02-02T13:11:14;22.45;;;5.47;;
28988;SDS011;16089;59.952;10.818;2023-02-02T13:13:55;24.85;;;6.25;;
28988;SDS011;16089;59.952;10.818;2023-02-02T13:16:23;16.45;;;5.45;;
28988;SDS011;16089;59.952;10.818;2023-02-02T13:18:50;20.98;;;6.05;;
28988;SDS011;16089;59.952;10.818;2023-02-02T13:21:20;18.83;;;5.35;;
28988;SDS011;16089;59.952;10.818;2023-02-02T13:23:49;16.58;;;4.97;;
28988;SDS011;16089;59.952;10.818;2023-02-02T13:26:17;18.38;;;4.78;;
28988;SDS011;16089;59.952;10.818;2023-02-02T13:28:44;14.70;;;4.95;;
28988;SDS011;16089;59.952;10.818;2023-02-02T13:31:13;18.00;;;5.22;;
28988;SDS011;16089;59.952;10.818;2023-02-02T13:33:41;17.55;;;4.60;;
28988;SDS011;16089;59.952;10.818;2023-02-02T13:36:12;20.27;;;3.97;;
28988;SDS011;16089;59.952;10.818;2023-02-02T13:38:42;17.88;;;3.67;;
28988;SDS011;16089;59.952;10.818;2023-02-02T13:41:10;15.05;;;3.20;;
28988;SDS011;16089;59.952;10.818;2023-02-02T13:43:38;14.90;;;4.10;;
28988;SDS011;16089;59.952;10.818;2023-02-02T13:46:11;12.32;;;3.00;;
28988;SDS011;16089;59.952;10.818;2023-02-02T13:48:46;13.73;;;3.05;;
28988;SDS011;16089;59.952;10.818;2023-02-02T13:51:19;12.68;;;3.35;;
28988;SDS011;16089;59.952;10.818;2023-02-02T13:53:54;17.63;;;4.15;;
28988;SDS011;16089;59.952;10.818;2023-02-02T13:56:29;11.88;;;3.53;;
28988;SDS011;16089;59.952;10.818;2023-02-02T13:59:03;12.20;;;3.75;;
28988;SDS011;16089;59.952;10.818;2023-02-02T14:01:33;13.98;;;4.00;;
28988;SDS011;16089;59.952;10.818;2023-02-02T14:04:00;8.85;;;3.50;;
28988;SDS011;16089;59.952;10.818;2023-02-02T14:06:28;17.17;;;3.67;;
28988;SDS011;16089;59.952;10.818;2023-02-02T14:09:16;11.02;;;3.00;;
28988;SDS011;16089;59.952;10.818;2023-02-02T14:11:49;11.80;;;3.35;;
28988;SDS011;16089;59.952;10.818;2023-02-02T14:17:00;12.60;;;3.30;;
28988;SDS011;16089;59.952;10.818;2023-02-02T14:19:46;10.48;;;3.00;;
28988;SDS011;16089;59.952;10.818;2023-02-02T14:22:17;17.10;;;3.40;;
28988;SDS011;16089;59.952;10.818;2023-02-02T14:24:46;12.18;;;2.80;;
28988;SDS011;16089;59.952;10.818;2023-02-02T14:30:17;10.02;;;3.38;;
28988;SDS011;16089;59.952;10.818;2023-02-02T14:32:45;9.02;;;3.15;;
28988;SDS011;16089;59.952;10.818;2023-02-02T14:37:53;10.65;;;2.88;;
28988;SDS011;16089;59.952;10.818;2023-02-02T14:40:30;9.45;;;3.10;;
28988;SDS011;16089;59.952;10.818;2023-02-02T14:43:01;8.30;;;2.97;;
28988;SDS011;16089;59.952;10.818;2023-02-02T14:45:48;11.95;;;2.85;;
28988;SDS011;16089;59.952;10.818;2023-02-02T14:48:15;10.98;;;3.78;;
28988;SDS011;16089;59.952;10.818;2023-02-02T14:50:46;12.52;;;3.25;;
28988;SDS011;16089;59.952;10.818;2023-02-02T14:53:19;7.80;;;2.33;;
28988;SDS011;16089;59.952;10.818;2023-02-02T14:55:56;8.07;;;2.40;;